Montier, Missouri
Current Conditions -  °F | °C
As of 9:53 PM on Saturday 20 Dec 2014 (Local Time) from KUNO Reporting Station
Overcast Overcast  
Wind Chill: 41°   Ceiling: 2300
Heat Index: 41°   Visibility: 10mi
Dew Point: 36°   Wind: 3mph
Humidity: 82%   Direction: 160°SSE
Pressure: 30.22"   Gusts: NA
Location:  36.99°N, 91.58°W
Report Text: KUNO 210353Z AUTO 16003KT 10SM OVC023 05/02 A3022 RMK AO2 SLP239 T00500022 $
Loading
Personal Weather Stations






























Interactive Weather Map New forecast layout! Learn more

10-Day Weather Forecast

Advertisements
Track Severe Weather on mobile